Time;durP1;ratioP1;P1;durP2;ratioP2;P2;SDS_P1;SDS_P2;PMS_P1;PMS_P2;Temp;Humidity;BMP_temperature;BMP_pressure;BME280_temperature;BME280_humidity;BME280_pressure;Samples;Min_cycle;Max_cycle;Signal;HPM_P1;HPM_P2
2023/08/16 00:00:57;;;;;;;7.50;6.50;;;20.40;99.90;;;;;;5091512;28;20235;-74
2023/08/16 00:03:22;;;;;;;10.30;8.20;;;20.40;99.90;;;;;;5091430;28;20169;-74
2023/08/16 00:05:48;;;;;;;9.40;7.20;;;20.40;99.90;;;;;;5091145;28;20189;-74
2023/08/16 00:08:13;;;;;;;11.37;7.63;;;20.30;99.90;;;;;;5091324;28;20189;-74
2023/08/16 00:10:39;;;;;;;9.00;7.80;;;20.30;99.90;;;;;;5091440;28;20550;-74
2023/08/16 00:13:04;;;;;;;8.27;7.40;;;20.20;99.90;;;;;;5091076;28;20550;-75
2023/08/16 00:15:30;;;;;;;7.97;6.93;;;20.20;99.90;;;;;;5092581;28;20531;-75
2023/08/16 00:17:56;;;;;;;11.30;9.30;;;20.10;99.90;;;;;;5095022;28;20531;-74
2023/08/16 00:20:21;;;;;;;8.90;7.00;;;20.10;99.90;;;;;;5094934;28;20165;-75
2023/08/16 00:22:49;;;;;;;12.20;9.10;;;20.10;99.90;;;;;;5094710;28;20181;-75
2023/08/16 00:25:15;;;;;;;9.77;8.43;;;20.10;99.90;;;;;;5094625;28;20635;-75
2023/08/16 00:27:41;;;;;;;10.20;8.30;;;20.00;99.90;;;;;;5094762;28;20456;-74
2023/08/16 00:30:08;;;;;;;8.63;7.67;;;20.00;99.90;;;;;;5094690;28;20171;-74
2023/08/16 00:32:34;;;;;;;8.80;7.83;;;20.00;99.90;;;;;;5094232;28;20447;-74
2023/08/16 00:34:59;;;;;;;8.47;7.00;;;19.90;99.90;;;;;;5094088;28;20407;-74
2023/08/16 00:37:25;;;;;;;10.43;9.20;;;19.90;99.90;;;;;;5094612;28;20172;-74
2023/08/16 00:39:50;;;;;;;9.07;8.17;;;19.90;99.90;;;;;;5094509;28;20610;-74
2023/08/16 00:42:16;;;;;;;9.17;8.23;;;19.80;99.90;;;;;;5094506;28;20211;-74
2023/08/16 00:44:41;;;;;;;9.97;8.47;;;19.80;99.90;;;;;;5094470;28;20178;-73
2023/08/16 00:47:07;;;;;;;8.50;7.80;;;19.80;99.90;;;;;;5075984;28;20174;-74
2023/08/16 00:49:33;;;;;;;10.90;8.47;;;19.70;99.90;;;;;;5094031;28;20169;-74
2023/08/16 00:52:00;;;;;;;9.10;7.70;;;19.70;99.90;;;;;;5094181;28;20217;-74
2023/08/16 00:54:27;;;;;;;9.43;7.67;;;19.70;99.90;;;;;;5094271;28;20201;-73
2023/08/16 00:56:52;;;;;;;15.03;10.73;;;19.60;99.90;;;;;;5093965;28;20404;-74
2023/08/16 00:59:19;;;;;;;10.17;8.40;;;19.60;99.90;;;;;;5094214;28;20410;-74
2023/08/16 01:01:45;;;;;;;7.90;7.20;;;19.60;99.90;;;;;;5094273;28;20193;-75
2023/08/16 01:04:11;;;;;;;10.67;8.40;;;19.60;99.90;;;;;;5094033;28;20400;-73
2023/08/16 01:06:36;;;;;;;11.63;9.50;;;19.50;99.90;;;;;;5093788;28;20514;-74
2023/08/16 01:09:03;;;;;;;10.50;9.40;;;19.50;99.90;;;;;;5093793;28;20407;-74
2023/08/16 01:11:36;;;;;;;11.97;10.73;;;19.40;99.90;;;;;;5093985;28;20205;-74
2023/08/16 01:14:10;;;;;;;9.87;8.87;;;19.40;99.90;;;;;;5093880;28;20439;-75
2023/08/16 01:16:39;;;;;;;10.17;9.17;;;19.40;99.90;;;;;;5093702;28;20723;-74
2023/08/16 01:19:10;;;;;;;9.60;8.40;;;19.40;99.90;;;;;;5093765;28;20435;-74
2023/08/16 01:21:42;;;;;;;9.33;8.43;;;19.40;99.90;;;;;;5093191;28;20412;-74
2023/08/16 01:24:30;;;;;;;8.90;8.10;;;19.30;99.90;;;;;;5075463;28;20419;-74
2023/08/16 01:26:56;;;;;;;10.17;9.07;;;19.30;99.90;;;;;;5092252;28;20540;-74
2023/08/16 01:29:23;;;;;;;9.13;8.27;;;19.30;99.90;;;;;;5093578;28;20397;-74
2023/08/16 01:31:49;;;;;;;9.27;8.43;;;19.30;99.90;;;;;;5093462;28;20419;-75
2023/08/16 01:34:14;;;;;;;9.53;8.70;;;19.20;99.90;;;;;;5075279;28;20422;-74
2023/08/16 01:36:40;;;;;;;9.70;8.80;;;19.20;99.90;;;;;;5093134;28;20161;-74
2023/08/16 01:39:06;;;;;;;10.50;8.63;;;19.20;99.90;;;;;;5093377;28;20194;-74
2023/08/16 01:41:41;;;;;;;9.20;8.30;;;19.20;99.90;;;;;;5093214;28;20196;-74
2023/08/16 01:44:09;;;;;;;9.30;8.40;;;19.20;99.90;;;;;;5075134;28;20165;-74
2023/08/16 01:46:37;;;;;;;9.63;8.63;;;19.20;99.90;;;;;;5092808;28;20396;-74
2023/08/16 01:49:03;;;;;;;10.80;8.73;;;19.20;99.90;;;;;;5093107;28;20406;-74
2023/08/16 01:51:29;;;;;;;9.17;8.27;;;19.20;99.90;;;;;;5093595;28;20424;-74
2023/08/16 01:53:55;;;;;;;9.90;8.50;;;19.20;99.90;;;;;;5092875;28;20509;-75
2023/08/16 01:56:21;;;;;;;10.60;8.10;;;19.20;99.90;;;;;;5092749;28;20728;-74
2023/08/16 01:58:47;;;;;;;11.23;8.33;;;19.10;99.90;;;;;;5093074;28;20227;-75
2023/08/16 02:01:14;;;;;;;12.40;7.50;;;19.10;99.90;;;;;;5092746;28;20426;-75
2023/08/16 02:03:39;;;;;;;11.63;8.70;;;19.10;99.90;;;;;;5092829;28;20403;-74
2023/08/16 02:06:05;;;;;;;13.00;8.00;;;19.10;99.90;;;;;;5092472;28;20968;-74
2023/08/16 02:08:30;;;;;;;10.27;8.90;;;19.10;99.90;;;;;;5092768;28;20192;-74
2023/08/16 02:10:56;;;;;;;10.87;8.60;;;19.10;99.90;;;;;;5092735;28;20246;-74
2023/08/16 02:13:21;;;;;;;9.63;8.60;;;19.10;99.90;;;;;;5092701;28;20283;-75
2023/08/16 02:15:47;;;;;;;12.07;10.30;;;19.10;99.90;;;;;;5092475;28;20166;-75
2023/08/16 02:18:13;;;;;;;10.77;9.70;;;19.10;99.90;;;;;;5092494;28;20170;-74
2023/08/16 02:20:39;;;;;;;11.70;9.70;;;19.10;99.90;;;;;;5092401;28;20630;-74
2023/08/16 02:23:06;;;;;;;16.77;12.20;;;19.10;99.90;;;;;;5092326;28;21114;-74
2023/08/16 02:25:31;;;;;;;16.90;12.43;;;19.10;99.90;;;;;;5092284;28;20403;-74
2023/08/16 02:27:57;;;;;;;14.57;13.27;;;19.20;99.90;;;;;;5092483;28;20405;-74
2023/08/16 02:30:23;;;;;;;12.20;9.53;;;19.20;99.90;;;;;;5074419;28;20170;-74
2023/08/16 02:32:48;;;;;;;13.90;10.80;;;19.20;99.90;;;;;;5092363;28;20193;-74
2023/08/16 02:35:14;;;;;;;11.10;10.00;;;19.20;99.90;;;;;;5092184;28;20177;-74
2023/08/16 02:37:42;;;;;;;12.57;10.63;;;19.20;99.90;;;;;;5092027;28;20648;-75
2023/08/16 02:40:08;;;;;;;12.70;10.90;;;19.20;99.90;;;;;;5074159;28;20176;-74
2023/08/16 02:42:33;;;;;;;12.70;10.20;;;19.30;99.90;;;;;;5092302;28;20435;-74
2023/08/16 02:44:59;;;;;;;12.67;11.33;;;19.30;99.90;;;;;;5092138;28;20461;-74
2023/08/16 02:47:24;;;;;;;15.47;12.37;;;19.30;99.90;;;;;;5092189;28;20177;-74
2023/08/16 02:49:50;;;;;;;12.63;10.80;;;19.40;99.90;;;;;;5092430;28;20209;-75
2023/08/16 02:52:15;;;;;;;13.73;12.33;;;19.30;99.90;;;;;;5092033;28;20648;-74
2023/08/16 02:54:41;;;;;;;13.77;12.37;;;19.40;99.90;;;;;;5091706;28;20180;-73
2023/08/16 02:57:07;;;;;;;12.43;11.07;;;19.40;99.90;;;;;;5091572;28;20538;-74
2023/08/16 02:59:46;;;;;;;15.53;11.30;;;19.40;99.90;;;;;;5092144;28;20400;-74
2023/08/16 03:02:12;;;;;;;12.67;11.47;;;19.40;99.90;;;;;;5091677;28;20200;-74
2023/08/16 03:04:40;;;;;;;11.33;10.20;;;19.50;99.90;;;;;;5091967;28;20801;-74
2023/08/16 03:07:10;;;;;;;13.40;11.97;;;19.60;99.90;;;;;;5091492;28;20431;-74
2023/08/16 03:09:37;;;;;;;17.90;13.87;;;19.70;99.90;;;;;;5091832;28;20811;-74
2023/08/16 03:12:03;;;;;;;12.50;11.23;;;19.70;99.90;;;;;;5073861;28;20455;-73
2023/08/16 03:14:29;;;;;;;15.63;11.80;;;19.80;99.90;;;;;;5091830;28;20392;-73
2023/08/16 03:16:56;;;;;;;10.73;9.73;;;19.80;99.90;;;;;;5091622;28;20484;-75
2023/08/16 03:19:21;;;;;;;9.27;8.10;;;19.90;99.90;;;;;;5091848;28;20404;-74
2023/08/16 03:21:47;;;;;;;12.07;9.80;;;20.00;99.90;;;;;;5091625;28;20427;-75
2023/08/16 03:24:12;;;;;;;11.00;9.87;;;20.00;99.90;;;;;;5092036;28;20197;-74
2023/08/16 03:26:38;;;;;;;9.90;8.90;;;20.00;99.90;;;;;;5091654;28;20170;-74
2023/08/16 03:29:04;;;;;;;11.93;10.47;;;20.10;99.90;;;;;;5091803;28;20224;-74
2023/08/16 03:31:30;;;;;;;13.40;10.60;;;20.10;99.90;;;;;;5073473;28;20225;-74
2023/08/16 03:33:55;;;;;;;14.70;11.17;;;20.10;99.90;;;;;;5091675;28;20861;-74
2023/08/16 03:36:21;;;;;;;15.03;9.10;;;20.10;99.90;;;;;;5073366;28;20542;-74
2023/08/16 03:38:46;;;;;;;11.10;9.87;;;20.20;99.90;;;;;;5091726;28;20165;-74
2023/08/16 03:41:12;;;;;;;12.13;10.80;;;20.20;99.90;;;;;;5073537;28;20200;-75
2023/08/16 03:43:38;;;;;;;13.73;8.83;;;20.20;99.90;;;;;;5091601;28;20180;-74
2023/08/16 03:46:05;;;;;;;11.93;9.70;;;20.30;99.90;;;;;;5091395;28;20676;-74
2023/08/16 03:48:30;;;;;;;10.37;9.40;;;20.30;99.90;;;;;;5074007;28;20943;-73
2023/08/16 03:50:56;;;;;;;11.20;10.00;;;20.30;99.90;;;;;;5093838;28;20439;-75
2023/08/16 03:53:22;;;;;;;13.80;9.60;;;20.30;99.90;;;;;;5095567;28;20201;-75
2023/08/16 03:55:47;;;;;;;11.00;9.30;;;20.30;99.90;;;;;;5095401;28;20169;-74
2023/08/16 03:58:13;;;;;;;13.70;10.47;;;20.30;99.90;;;;;;5095418;28;20185;-74
2023/08/16 04:00:40;;;;;;;11.27;9.27;;;20.30;99.90;;;;;;5095147;28;20244;-75
2023/08/16 04:03:06;;;;;;;12.47;9.67;;;20.30;99.90;;;;;;5095362;28;20586;-75
2023/08/16 04:05:33;;;;;;;16.33;9.70;;;20.30;99.90;;;;;;5094778;28;20408;-75
2023/08/16 04:07:58;;;;;;;9.53;8.40;;;20.30;99.90;;;;;;5095104;28;20426;-74
2023/08/16 04:10:24;;;;;;;13.00;8.20;;;20.30;99.90;;;;;;5093998;28;20407;-74
2023/08/16 04:12:49;;;;;;;10.20;8.83;;;20.40;99.90;;;;;;5094989;28;20197;-74
2023/08/16 04:15:15;;;;;;;11.40;9.07;;;20.40;99.90;;;;;;5094742;28;20634;-75
2023/08/16 04:17:41;;;;;;;11.97;9.10;;;20.40;99.90;;;;;;5095055;28;20194;-74
2023/08/16 04:20:07;;;;;;;12.23;9.67;;;20.40;99.90;;;;;;5094951;28;20173;-75
2023/08/16 04:22:34;;;;;;;11.43;9.40;;;20.40;99.90;;;;;;5094899;28;20666;-75
2023/08/16 04:24:59;;;;;;;11.47;8.00;;;20.40;99.90;;;;;;5076591;28;20455;-75
2023/08/16 04:27:25;;;;;;;8.87;8.07;;;20.40;99.90;;;;;;5094910;28;20927;-73
2023/08/16 04:29:50;;;;;;;13.43;8.60;;;20.40;99.90;;;;;;5094810;28;20173;-74
2023/08/16 04:32:16;;;;;;;12.27;8.00;;;20.40;99.90;;;;;;5094735;28;20566;-74
2023/08/16 04:34:41;;;;;;;11.33;8.97;;;20.40;99.90;;;;;;5094679;28;20180;-74
2023/08/16 04:37:07;;;;;;;11.67;8.33;;;20.40;99.90;;;;;;5094670;28;20173;-74
2023/08/16 04:39:32;;;;;;;10.00;8.70;;;20.40;99.90;;;;;;5094702;28;20176;-74
2023/08/16 04:41:58;;;;;;;8.47;7.63;;;20.40;99.90;;;;;;5094459;28;20598;-74
2023/08/16 04:44:23;;;;;;;10.63;8.07;;;20.40;99.90;;;;;;5094529;28;20158;-75
2023/08/16 04:46:49;;;;;;;11.47;8.63;;;20.40;99.90;;;;;;5094235;28;20662;-75
2023/08/16 04:49:15;;;;;;;8.87;7.03;;;20.40;99.90;;;;;;5076347;28;20273;-75
2023/08/16 04:51:40;;;;;;;7.87;6.70;;;20.40;99.90;;;;;;5094345;28;20185;-73
2023/08/16 04:54:07;;;;;;;8.97;7.20;;;20.50;99.90;;;;;;5094364;28;20590;-75
2023/08/16 04:56:33;;;;;;;8.93;8.03;;;20.50;99.90;;;;;;5076006;28;20220;-75
2023/08/16 04:58:58;;;;;;;9.20;8.00;;;20.50;99.90;;;;;;5094424;28;20792;-74
2023/08/16 05:01:24;;;;;;;8.00;7.00;;;20.50;99.90;;;;;;5093736;28;20185;-75
2023/08/16 05:03:52;;;;;;;7.73;6.93;;;20.50;99.90;;;;;;5094135;28;20166;-74
2023/08/16 05:06:18;;;;;;;7.57;6.77;;;20.60;99.90;;;;;;5093674;28;20184;-74
2023/08/16 05:08:44;;;;;;;8.40;7.60;;;20.60;99.90;;;;;;5094123;28;20400;-74
2023/08/16 05:11:09;;;;;;;7.20;6.20;;;20.60;99.90;;;;;;5093992;28;20690;-74
2023/08/16 05:13:35;;;;;;;7.00;6.00;;;20.60;99.90;;;;;;5075731;28;20197;-74
2023/08/16 05:16:00;;;;;;;8.03;7.23;;;20.70;99.90;;;;;;5075523;28;20166;-74
2023/08/16 05:18:26;;;;;;;6.87;6.17;;;20.80;99.90;;;;;;5093705;28;20162;-74
2023/08/16 05:20:54;;;;;;;9.67;6.50;;;20.80;99.90;;;;;;5093792;28;20166;-75
2023/08/16 05:23:20;;;;;;;7.33;6.63;;;20.90;99.90;;;;;;5093781;28;20166;-75
2023/08/16 05:25:45;;;;;;;6.60;5.70;;;20.90;99.90;;;;;;5075322;28;20408;-74
2023/08/16 05:28:11;;;;;;;7.73;6.50;;;21.00;99.90;;;;;;5093666;28;20194;-74
2023/08/16 05:30:36;;;;;;;8.10;7.30;;;21.00;99.90;;;;;;5093546;28;20197;-74
2023/08/16 05:33:03;;;;;;;10.27;7.10;;;21.00;99.90;;;;;;5093485;28;20197;-76
2023/08/16 05:35:33;;;;;;;8.33;7.13;;;21.00;99.90;;;;;;5093290;28;20249;-72
2023/08/16 05:37:58;;;;;;;8.37;6.97;;;21.00;99.90;;;;;;5075237;28;20408;-75
2023/08/16 05:40:24;;;;;;;11.90;6.97;;;21.00;99.90;;;;;;5093499;28;20529;-75
2023/08/16 05:42:49;;;;;;;6.53;5.20;;;21.10;99.90;;;;;;5075139;28;20185;-75
2023/08/16 05:45:15;;;;;;;9.40;5.67;;;21.10;99.90;;;;;;5093123;28;20158;-75
2023/08/16 05:47:41;;;;;;;7.07;6.37;;;21.10;99.90;;;;;;5075079;28;20262;-75
2023/08/16 05:50:06;;;;;;;7.90;5.97;;;21.20;99.90;;;;;;5093297;28;20189;-74
2023/08/16 05:52:32;;;;;;;6.40;5.83;;;21.20;99.90;;;;;;5093005;28;20251;-75
2023/08/16 05:54:57;;;;;;;6.70;6.10;;;21.20;99.90;;;;;;5093292;28;20237;-74
2023/08/16 05:57:23;;;;;;;7.93;6.50;;;21.20;99.90;;;;;;5093077;28;20267;-72
2023/08/16 05:59:48;;;;;;;5.50;5.00;;;21.30;99.90;;;;;;5074870;28;20162;-72
2023/08/16 06:02:14;;;;;;;6.43;5.00;;;21.30;99.90;;;;;;5092981;28;20217;-73
2023/08/16 06:04:39;;;;;;;5.60;5.10;;;21.30;99.90;;;;;;5092981;28;20570;-73
2023/08/16 06:07:05;;;;;;;6.90;6.00;;;21.40;99.90;;;;;;5092629;28;20185;-74
2023/08/16 06:09:31;;;;;;;5.43;4.93;;;21.40;99.90;;;;;;5092948;28;20176;-73
2023/08/16 06:11:57;;;;;;;8.93;5.60;;;21.50;99.90;;;;;;5074560;28;20186;-73
2023/08/16 06:14:22;;;;;;;6.00;5.40;;;21.60;99.90;;;;;;5092145;28;20387;-72
2023/08/16 06:16:48;;;;;;;6.20;5.60;;;21.60;99.90;;;;;;5074397;28;20650;-73
2023/08/16 06:19:15;;;;;;;9.30;6.30;;;21.70;99.90;;;;;;5092676;28;20162;-74
2023/08/16 06:21:41;;;;;;;7.20;6.60;;;21.70;99.90;;;;;;5092568;28;20960;-75
2023/08/16 06:24:08;;;;;;;7.00;5.60;;;21.70;99.90;;;;;;5092711;28;20474;-73
2023/08/16 06:26:34;;;;;;;7.73;7.07;;;21.80;99.90;;;;;;5092332;28;20638;-74
2023/08/16 06:28:59;;;;;;;8.67;7.33;;;21.80;99.90;;;;;;5092667;28;20432;-74
2023/08/16 06:31:25;;;;;;;8.90;7.80;;;21.80;99.90;;;;;;5092436;28;20220;-73
2023/08/16 06:33:51;;;;;;;10.60;9.23;;;21.80;99.90;;;;;;5074268;28;20197;-74
2023/08/16 06:36:16;;;;;;;7.80;7.00;;;21.80;99.90;;;;;;5092280;28;20165;-73
2023/08/16 06:38:43;;;;;;;7.67;6.97;;;21.80;99.90;;;;;;5092361;28;20904;-73
2023/08/16 06:41:09;;;;;;;8.47;7.70;;;21.80;99.90;;;;;;5092352;28;20201;-74
2023/08/16 06:43:35;;;;;;;9.17;6.80;;;21.80;99.90;;;;;;5092251;28;20873;-73
2023/08/16 06:46:00;;;;;;;7.63;5.97;;;21.80;99.90;;;;;;5092046;28;20327;-73
2023/08/16 06:48:26;;;;;;;6.37;5.73;;;21.80;99.90;;;;;;5092184;28;20197;-74
2023/08/16 06:50:51;;;;;;;7.73;6.63;;;21.80;99.90;;;;;;5092185;28;20542;-73
2023/08/16 06:53:17;;;;;;;7.57;6.40;;;21.80;99.90;;;;;;5092215;28;20671;-73
2023/08/16 06:55:42;;;;;;;8.80;7.17;;;21.80;99.90;;;;;;5091814;28;20544;-73
2023/08/16 06:58:08;;;;;;;8.47;7.13;;;21.90;99.90;;;;;;5092168;28;20172;-73
2023/08/16 07:00:34;;;;;;;7.00;6.30;;;21.90;99.90;;;;;;5092050;28;20253;-73
2023/08/16 07:03:02;;;;;;;7.70;6.57;;;22.00;99.90;;;;;;5092344;28;20218;-74
2023/08/16 07:05:28;;;;;;;8.33;6.77;;;22.00;99.90;;;;;;5091766;28;20415;-73
2023/08/16 07:07:54;;;;;;;11.50;8.20;;;22.10;99.90;;;;;;5092047;28;20424;-73
2023/08/16 07:10:19;;;;;;;6.30;5.70;;;22.10;99.90;;;;;;5092093;28;20169;-72
2023/08/16 07:12:46;;;;;;;6.03;5.30;;;22.20;99.90;;;;;;5091832;28;20439;-73
2023/08/16 07:15:11;;;;;;;6.83;6.13;;;22.30;99.90;;;;;;5091667;28;20263;-73
2023/08/16 07:17:37;;;;;;;8.03;6.80;;;22.30;99.90;;;;;;5073884;28;20434;-74
2023/08/16 07:20:07;;;;;;;7.40;6.70;;;22.40;99.90;;;;;;5091920;28;20511;-74
2023/08/16 07:22:32;;;;;;;7.80;4.77;;;22.40;99.90;;;;;;5073700;28;20983;-73
2023/08/16 07:24:58;;;;;;;8.03;6.63;;;22.50;99.90;;;;;;5094183;28;20499;-74
2023/08/16 07:27:24;;;;;;;10.00;5.93;;;22.50;99.90;;;;;;5095875;28;20657;-74
2023/08/16 07:29:50;;;;;;;12.23;7.33;;;22.50;99.90;;;;;;5077862;28;20174;-73
2023/08/16 07:32:15;;;;;;;9.43;7.70;;;22.50;99.90;;;;;;5095705;28;20451;-74
2023/08/16 07:34:42;;;;;;;9.33;7.73;;;22.50;99.90;;;;;;5077686;28;20219;-74
2023/08/16 07:37:10;;;;;;;9.80;7.60;;;22.60;99.90;;;;;;5077406;28;20249;-73
2023/08/16 07:39:36;;;;;;;9.90;7.60;;;22.60;99.90;;;;;;5095795;28;20411;-74
2023/08/16 07:42:01;;;;;;;10.80;8.33;;;22.80;99.90;;;;;;5095591;28;20423;-74
2023/08/16 07:44:27;;;;;;;14.70;7.33;;;22.90;99.90;;;;;;5077590;28;20665;-73
2023/08/16 07:46:52;;;;;;;7.63;6.83;;;23.10;99.90;;;;;;5095331;28;20169;-74
2023/08/16 07:49:18;;;;;;;9.87;8.13;;;23.30;99.90;;;;;;5095604;28;20165;-74
2023/08/16 07:51:43;;;;;;;8.70;7.63;;;23.50;99.90;;;;;;5077314;28;20612;-74
2023/08/16 07:54:09;;;;;;;8.23;7.27;;;23.70;99.90;;;;;;5095577;28;20201;-74
2023/08/16 07:56:34;;;;;;;6.87;6.17;;;24.10;99.90;;;;;;5095216;28;20176;-74
2023/08/16 07:59:00;;;;;;;6.50;5.87;;;24.50;99.90;;;;;;5095465;28;20184;-71
2023/08/16 08:01:26;;;;;;;8.23;5.70;;;25.00;99.90;;;;;;5095030;28;20239;-70
2023/08/16 08:03:52;;;;;;;7.20;6.33;;;25.50;99.90;;;;;;5095391;28;20188;-71
2023/08/16 08:06:18;;;;;;;8.53;7.30;;;25.80;99.90;;;;;;5094439;28;20419;-71
2023/08/16 08:08:43;;;;;;;7.00;5.47;;;25.90;99.90;;;;;;5095164;28;20173;-71
2023/08/16 08:11:09;;;;;;;5.83;5.23;;;25.90;99.90;;;;;;5094415;28;20197;-71
2023/08/16 08:13:34;;;;;;;8.10;6.67;;;25.90;99.90;;;;;;5095060;28;20193;-71
2023/08/16 08:16:00;;;;;;;7.77;6.23;;;25.90;99.90;;;;;;5094858;28;20240;-70
2023/08/16 08:18:26;;;;;;;10.20;6.47;;;25.80;99.90;;;;;;5095074;28;20207;-70
2023/08/16 08:20:51;;;;;;;9.83;7.50;;;25.60;99.90;;;;;;5094814;28;20985;-70
2023/08/16 08:23:17;;;;;;;9.03;7.83;;;25.50;99.90;;;;;;5094944;28;20165;-71
2023/08/16 08:25:44;;;;;;;11.20;8.27;;;25.30;99.90;;;;;;5094543;28;20208;-72
2023/08/16 08:28:10;;;;;;;9.43;8.03;;;25.20;99.90;;;;;;5094700;28;20169;-70
2023/08/16 08:30:35;;;;;;;11.70;7.90;;;25.20;99.90;;;;;;5094689;28;20414;-70
2023/08/16 08:33:01;;;;;;;10.23;8.60;;;25.20;99.90;;;;;;5094606;28;20723;-71
2023/08/16 08:35:27;;;;;;;8.90;8.10;;;25.30;99.90;;;;;;5093885;28;20174;-70
2023/08/16 08:37:53;;;;;;;10.63;9.53;;;25.40;99.90;;;;;;5094403;28;20404;-70
2023/08/16 08:40:18;;;;;;;12.90;11.70;;;25.40;99.90;;;;;;5094642;28;20161;-70
2023/08/16 08:42:49;;;;;;;10.87;9.10;;;25.60;99.90;;;;;;5094446;28;20609;-71
2023/08/16 08:45:15;;;;;;;11.00;9.23;;;25.70;99.90;;;;;;5094317;28;20176;-71
2023/08/16 08:47:44;;;;;;;11.33;9.60;;;25.80;99.90;;;;;;5094468;28;20422;-70
2023/08/16 08:50:10;;;;;;;13.17;10.80;;;25.90;99.90;;;;;;5094471;28;20407;-70
2023/08/16 08:52:35;;;;;;;12.47;10.00;;;25.90;99.90;;;;;;5094185;28;20609;-69
2023/08/16 08:55:03;;;;;;;13.20;11.73;;;25.90;99.90;;;;;;5093971;28;20412;-72
2023/08/16 08:57:30;;;;;;;16.50;11.70;;;26.00;99.90;;;;;;5094364;28;20168;-72
2023/08/16 09:00:00;;;;;;;14.07;11.43;;;26.10;99.90;;;;;;5094298;28;20456;-71
2023/08/16 09:02:30;;;;;;;12.10;10.80;;;26.10;99.90;;;;;;5093966;28;20427;-73
2023/08/16 09:04:59;;;;;;;10.43;9.43;;;26.10;99.90;;;;;;5094026;28;20403;-70
2023/08/16 09:07:25;;;;;;;13.00;9.40;;;26.20;99.90;;;;;;5094033;28;20906;-71
2023/08/16 09:09:52;;;;;;;10.83;9.73;;;26.30;99.90;;;;;;5093990;28;20480;-70
2023/08/16 09:12:19;;;;;;;10.93;9.30;;;26.40;99.90;;;;;;5093941;28;20476;-71
2023/08/16 09:14:44;;;;;;;10.80;9.63;;;26.40;99.90;;;;;;5093981;28;20408;-70
2023/08/16 09:17:10;;;;;;;12.83;9.60;;;26.50;99.90;;;;;;5093774;28;20889;-70
2023/08/16 09:19:45;;;;;;;8.83;7.90;;;26.40;99.90;;;;;;5093927;28;20465;-71
2023/08/16 09:22:12;;;;;;;11.10;9.43;;;26.30;99.90;;;;;;5093786;28;20230;-70
2023/08/16 09:24:40;;;;;;;8.80;7.80;;;26.20;99.90;;;;;;5093732;28;20406;-71
2023/08/16 09:27:06;;;;;;;11.10;9.23;;;26.10;99.90;;;;;;5093510;28;20411;-71
2023/08/16 09:29:31;;;;;;;10.13;9.03;;;26.00;99.90;;;;;;5093563;28;20896;-71
2023/08/16 09:31:57;;;;;;;11.03;8.20;;;26.00;99.90;;;;;;5093118;28;20662;-71
2023/08/16 09:34:24;;;;;;;10.57;8.80;;;26.00;99.90;;;;;;5075429;28;20252;-71
2023/08/16 09:36:51;;;;;;;8.97;7.97;;;26.10;99.90;;;;;;5093256;28;20658;-70
2023/08/16 09:39:17;;;;;;;11.07;9.50;;;26.30;99.90;;;;;;5075557;28;20408;-71
2023/08/16 09:41:49;;;;;;;12.30;10.17;;;26.50;99.90;;;;;;5093401;28;20469;-71
2023/08/16 09:44:15;;;;;;;12.10;9.47;;;26.70;99.90;;;;;;5093459;28;20166;-70
2023/08/16 09:46:41;;;;;;;12.27;9.80;;;26.70;99.90;;;;;;5074836;28;20410;-70
2023/08/16 09:49:08;;;;;;;10.47;9.03;;;26.70;99.90;;;;;;5092277;28;20896;-71
2023/08/16 09:51:45;;;;;;;11.10;8.77;;;26.60;99.90;;;;;;5093170;28;20284;-71
2023/08/16 09:54:12;;;;;;;10.20;8.57;;;26.50;99.90;;;;;;5093119;28;20443;-71
2023/08/16 09:56:38;;;;;;;10.20;8.43;;;26.50;99.90;;;;;;5092876;28;20905;-72
2023/08/16 09:59:05;;;;;;;11.90;9.57;;;26.70;99.90;;;;;;5093044;28;20407;-71
2023/08/16 10:01:33;;;;;;;8.77;7.90;;;26.90;99.90;;;;;;5092992;28;20181;-71
2023/08/16 10:03:59;;;;;;;13.60;8.80;;;27.00;99.90;;;;;;5092989;28;20488;-72
2023/08/16 10:06:25;;;;;;;10.93;9.37;;;27.20;99.90;;;;;;5092628;28;20506;-70
2023/08/16 10:08:58;;;;;;;10.90;8.80;;;27.30;99.90;;;;;;5069253;28;20511;-71
2023/08/16 10:11:24;;;;;;;11.40;10.17;;;27.30;99.90;;;;;;5069303;28;20877;-70
2023/08/16 10:13:50;;;;;;;10.43;9.30;;;27.30;99.90;;;;;;5069354;28;20401;-70
2023/08/16 10:16:18;;;;;;;8.83;7.93;;;27.30;99.90;;;;;;5068939;28;20401;-70
2023/08/16 10:18:46;;;;;;;9.27;8.37;;;27.30;99.90;;;;;;5069216;28;20435;-69
2023/08/16 10:21:18;;;;;;;9.77;8.87;;;27.20;99.90;;;;;;5069280;28;20412;-70
2023/08/16 10:23:46;;;;;;;10.80;9.13;;;27.10;99.90;;;;;;5069096;28;20421;-70
2023/08/16 10:26:19;;;;;;;13.90;9.97;;;27.10;99.90;;;;;;5068758;28;20404;-69
2023/08/16 10:28:49;;;;;;;9.83;8.43;;;27.00;99.90;;;;;;5068896;28;20448;-70
2023/08/16 10:31:19;;;;;;;10.00;8.73;;;27.10;99.90;;;;;;5069073;28;20473;-70
2023/08/16 10:33:48;;;;;;;9.13;8.20;;;27.20;99.90;;;;;;5068927;28;20476;-70
2023/08/16 10:36:14;;;;;;;10.20;9.30;;;27.30;99.90;;;;;;5068589;28;20929;-70
2023/08/16 10:38:44;;;;;;;11.77;9.60;;;27.30;99.90;;;;;;5068716;28;20401;-71
2023/08/16 10:41:12;;;;;;;13.00;11.37;;;27.50;99.90;;;;;;5068636;28;20417;-70
2023/08/16 10:43:37;;;;;;;10.27;9.00;;;28.10;99.90;;;;;;5068683;28;20538;-70
2023/08/16 10:46:03;;;;;;;7.17;6.57;;;29.00;99.90;;;;;;5068380;28;21002;-70
2023/08/16 10:48:36;;;;;;;6.90;6.30;;;30.20;99.90;;;;;;5068578;28;20255;-72
2023/08/16 10:51:07;;;;;;;8.30;7.60;;;31.60;99.90;;;;;;5068536;28;20643;-72
2023/08/16 10:53:37;;;;;;;10.73;9.27;;;32.20;99.90;;;;;;5068563;28;20424;-71
2023/08/16 10:56:07;;;;;;;9.67;8.23;;;32.40;99.90;;;;;;5068159;28;20473;-70
2023/08/16 10:58:47;;;;;;;7.43;6.83;;;32.40;99.90;;;;;;5068366;28;20432;-70
2023/08/16 11:01:12;;;;;;;7.90;7.20;;;32.90;99.90;;;;;;5068237;28;20964;-71
2023/08/16 11:03:41;;;;;;;8.00;6.37;;;34.50;99.90;;;;;;5068305;28;20407;-71
2023/08/16 11:06:08;;;;;;;7.43;6.83;;;36.00;98.60;;;;;;5067822;28;20216;-71
2023/08/16 11:08:34;;;;;;;7.43;6.73;;;37.20;89.10;;;;;;5068010;28;20456;-71
2023/08/16 11:11:01;;;;;;;7.27;6.67;;;38.80;76.60;;;;;;5068022;28;20423;-73
2023/08/16 11:13:28;;;;;;;6.00;5.53;;;41.50;61.00;;;;;;5066822;28;20397;-71
2023/08/16 11:15:57;;;;;;;7.13;6.57;;;43.50;51.90;;;;;;5067733;28;20404;-71
2023/08/16 11:18:29;;;;;;;5.50;5.10;;;44.20;48.10;;;;;;5065873;28;20376;-73
2023/08/16 11:20:59;;;;;;;6.93;6.50;;;45.50;46.40;;;;;;5054478;28;20492;-73
2023/08/16 11:23:32;;;;;;;6.30;5.80;;;47.50;44.10;;;;;;5055041;28;20384;-73
2023/08/16 11:26:00;;;;;;;5.97;5.57;;;48.90;39.20;;;;;;5054398;28;20425;-72
2023/08/16 11:28:27;;;;;;;5.90;5.40;;;50.20;37.10;;;;;;5054493;28;20423;-72
2023/08/16 11:31:00;;;;;;;6.90;6.30;;;51.80;35.10;;;;;;5054421;28;20402;-72
2023/08/16 11:33:36;;;;;;;7.20;6.43;;;52.00;32.60;;;;;;5054602;28;20427;-72
2023/08/16 11:36:04;;;;;;;7.57;6.83;;;50.50;32.40;;;;;;5054175;28;20376;-73
2023/08/16 11:38:30;;;;;;;6.43;5.93;;;49.00;32.50;;;;;;5054814;28;20390;-73
2023/08/16 11:40:56;;;;;;;6.20;5.70;;;49.00;33.40;;;;;;5054473;28;20400;-73
2023/08/16 11:43:29;;;;;;;6.07;5.43;;;50.40;32.30;;;;;;5054376;28;20167;-71
2023/08/16 11:45:55;;;;;;;6.40;5.93;;;51.90;32.10;;;;;;5053998;28;20619;-72
2023/08/16 11:48:24;;;;;;;6.23;5.73;;;52.90;31.00;;;;;;5054163;28;20428;-73
2023/08/16 11:50:50;;;;;;;6.67;6.17;;;53.10;29.80;;;;;;5054278;28;20492;-72
2023/08/16 11:53:17;;;;;;;7.50;6.90;;;52.60;29.30;;;;;;5054626;28;20447;-70
2023/08/16 11:55:42;;;;;;;6.67;6.13;;;50.90;29.20;;;;;;5053586;28;20432;-70
2023/08/16 11:58:12;;;;;;;6.00;5.60;;;49.00;29.40;;;;;;5055007;28;20380;-73
2023/08/16 12:00:38;;;;;;;7.60;7.00;;;47.70;30.70;;;;;;5055210;28;20551;-73
2023/08/16 12:03:05;;;;;;;6.50;6.00;;;46.30;31.40;;;;;;5055566;28;20892;-71
2023/08/16 12:05:38;;;;;;;6.10;5.53;;;44.80;33.40;;;;;;5054751;28;20907;-70
2023/08/16 12:08:06;;;;;;;8.80;8.10;;;43.20;34.30;;;;;;5055017;28;20519;-71
2023/08/16 12:10:32;;;;;;;7.70;7.07;;;41.90;35.90;;;;;;5055262;28;20402;-71
2023/08/16 12:12:58;;;;;;;6.97;6.47;;;41.20;36.90;;;;;;5054738;28;20518;-71
2023/08/16 12:15:26;;;;;;;8.63;7.87;;;41.50;38.40;;;;;;5054631;28;20405;-71
2023/08/16 12:17:52;;;;;;;6.80;6.20;;;41.30;37.70;;;;;;5055026;28;20940;-71
2023/08/16 12:20:18;;;;;;;6.67;5.87;;;41.80;38.70;;;;;;5054704;28;20372;-71
2023/08/16 12:22:45;;;;;;;6.13;5.67;;;42.90;37.80;;;;;;5055009;28;20479;-71
2023/08/16 12:25:10;;;;;;;7.60;6.90;;;42.60;37.00;;;;;;5054396;28;20166;-70
2023/08/16 12:27:36;;;;;;;7.27;6.67;;;41.80;37.30;;;;;;5054261;28;20424;-71
2023/08/16 12:30:04;;;;;;;7.73;7.03;;;41.00;37.60;;;;;;5053878;28;20193;-71
2023/08/16 12:32:30;;;;;;;6.20;5.70;;;40.90;38.90;;;;;;5054020;28;20210;-71
2023/08/16 12:34:55;;;;;;;6.87;6.20;;;41.60;39.60;;;;;;5054110;28;20764;-71
2023/08/16 12:37:21;;;;;;;6.30;5.70;;;42.90;39.10;;;;;;5054419;28;20462;-72